Portada
METAR-TAF:

METAR-TAF

Aeroports :

Nassau, Bahames

latitud: 25-03N, longitud: 077-28W, altitud: 3 m

Observació

L'informe es va fer fa 59 minuts, a les 11:00 UTC
Vent 4 kt del Est
Temperatura 22°C
Humitat 94%
Pressió 1021 hPa
Visibilitat 10 km o més
Escasses núvols a una alçada de 2500 ft

METAR: MYNN 121100Z 09004KT 9999 FEW025 22/21 A3016

Hora: 06:59 (11:59 UTC)

Pronòstic

L'informe es va fer fa 1 hora i 9 minuts, a les 10:50 UTC
Pronòstic vàlid del 12 a les 12 UTC al 13 a les 12 UTC
Vent 5 kt del Est amb ràfegues de 20 kt
Visibilitat 10 km o més
Núvols disperses a una alçada de 3000 ft
Probabilitat 30% :
Temporalment
l' 12 a les 21 UTC al 13 a les 03 UTC
Visibilitat: 8000 m
Núvols disperses a una alçada de 1500 ft
Cel ennuvolat a una alçada de 1800 ft
xàfecs de pluja

TAF: MYNN 121050Z 1212/1312 09005G20KT 9999 EW020 SCT030 PROB30 TEMPO 1221/1303 8000 SHRA SCT015 BKN018

Observacions i pronòstics meteorològics de més de 4000 aeroports (METAR i TAF).

Les estacions disponibles són els punts grocs i vermells al mapa.

Posi el ratolí al punt desitjat per veure el nom de l'estació.

Feu clic per veure les observacions i els pronòstics meteorològics.

Per canviar el mapa: feu clic els botons verds amb una creu de color negre per apropar; al botó verd amb un guió per allunyar la imatge; o en les fletxes verdes per a mapes adjacents.


METAR-TAF: